Grey Eagle, Minnesota
Current Conditions -  °F | °C
As of 7:49 PM on Monday 22 Dec 2014 (Local Time) from K14Y Reporting Station
Light Snow Light Snow  
Wind Chill: 24°   Ceiling: 300
Heat Index: 32°   Visibility: 2.5mi
Dew Point: 32°   Wind: 10mph
Humidity: 100%   Direction: 60°ENE
Pressure: 29.61"   Gusts: NA
Location:  45.83°N, 94.75°W
Report Text: K14Y 230149Z AUTO 06009KT 2 1/2SM -SN OVC003 00/00 A2961 RMK AO2
Loading
Personal Weather Stations






























Interactive Weather Map New forecast layout! Learn more

10-Day Weather Forecast

Advertisements
Track Severe Weather on mobile